createdAt,value
2018-05-13T00:01:05.465Z,2.80
2018-05-13T00:03:33.006Z,2.90
2018-05-13T00:06:00.580Z,4.73
2018-05-13T00:08:28.099Z,2.77
2018-05-13T00:10:55.622Z,4.60
2018-05-13T00:13:23.124Z,2.83
2018-05-13T00:15:50.626Z,2.97
2018-05-13T00:18:18.124Z,3.90
2018-05-13T00:20:46.469Z,3.60
2018-05-13T00:23:13.962Z,2.70
2018-05-13T00:25:41.463Z,4.23
2018-05-13T00:28:08.954Z,5.17
2018-05-13T00:30:36.456Z,3.53
2018-05-13T00:33:04.749Z,2.30
2018-05-13T00:35:33.009Z,4.77
2018-05-13T00:38:00.505Z,4.87
2018-05-13T00:40:28.017Z,2.87
2018-05-13T00:42:55.520Z,3.10
2018-05-13T00:45:23.793Z,3.50
2018-05-13T00:47:51.309Z,3.90
2018-05-13T00:50:18.812Z,4.83
2018-05-13T00:52:47.090Z,2.33
2018-05-13T00:55:14.635Z,2.90
2018-05-13T00:57:42.141Z,4.47
2018-05-13T01:00:10.431Z,2.43
2018-05-13T01:02:37.944Z,2.70
2018-05-13T01:05:05.433Z,2.83
2018-05-13T01:07:33.719Z,5.50
2018-05-13T01:10:01.244Z,2.03
2018-05-13T01:12:28.751Z,1.90
2018-05-13T01:14:57.019Z,2.60
2018-05-13T01:17:25.298Z,3.80
2018-05-13T01:19:53.579Z,3.30
2018-05-13T01:22:21.095Z,3.57
2018-05-13T01:24:48.591Z,3.10
2018-05-13T01:27:16.110Z,3.03
2018-05-13T01:29:43.606Z,2.10
2018-05-13T01:32:11.116Z,4.63
2018-05-13T01:34:38.632Z,2.73
2018-05-13T01:37:06.157Z,3.37
2018-05-13T01:39:33.668Z,2.70
2018-05-13T01:42:01.176Z,3.13
2018-05-13T01:44:29.462Z,4.97
2018-05-13T01:46:56.956Z,3.03
2018-05-13T01:49:24.483Z,3.57
2018-05-13T01:51:52.009Z,3.57
2018-05-13T01:54:19.514Z,2.07
2018-05-13T01:56:47.025Z,2.57
2018-05-13T01:59:14.519Z,2.30
2018-05-13T02:01:42.793Z,3.60
2018-05-13T02:04:11.059Z,2.90
2018-05-13T02:06:38.613Z,3.53
2018-05-13T02:09:06.121Z,3.43
2018-05-13T02:11:33.620Z,2.13
2018-05-13T02:14:01.121Z,6.00
2018-05-13T02:16:29.394Z,4.27
2018-05-13T02:18:56.897Z,5.10
2018-05-13T02:21:24.395Z,3.97
2018-05-13T02:23:52.119Z,4.13
2018-05-13T02:26:20.393Z,4.07
2018-05-13T02:28:48.660Z,4.83
2018-05-13T02:31:16.926Z,3.60
2018-05-13T02:33:44.427Z,3.37
2018-05-13T02:36:12.158Z,3.63
2018-05-13T02:38:39.673Z,2.03
2018-05-13T02:41:07.190Z,5.37
2018-05-13T02:43:34.704Z,2.73
2018-05-13T02:46:02.213Z,2.40
2018-05-13T02:48:29.711Z,4.10
2018-05-13T02:50:57.228Z,2.93
2018-05-13T02:53:24.726Z,3.50
2018-05-13T02:55:53.030Z,2.90
2018-05-13T02:58:20.696Z,3.50
2018-05-13T03:00:48.210Z,2.30
2018-05-13T03:03:15.712Z,2.13
2018-05-13T03:05:43.204Z,2.17
2018-05-13T03:08:10.706Z,2.87
2018-05-13T03:10:38.233Z,2.40
2018-05-13T03:13:05.742Z,4.13
2018-05-13T03:15:34.020Z,2.17
2018-05-13T03:18:02.300Z,2.97
2018-05-13T03:20:29.799Z,3.53
2018-05-13T03:22:57.352Z,5.73
2018-05-13T03:25:25.808Z,3.13
2018-05-13T03:27:53.305Z,3.57
2018-05-13T03:30:20.813Z,2.37
2018-05-13T03:32:48.318Z,2.70
2018-05-13T03:35:16.591Z,4.20
2018-05-13T03:37:44.876Z,6.53
2018-05-13T03:40:13.143Z,4.40
2018-05-13T03:42:40.652Z,3.10
2018-05-13T03:45:08.139Z,3.67
2018-05-13T03:47:35.657Z,4.07
2018-05-13T03:50:03.181Z,3.87
2018-05-13T03:52:30.711Z,2.77
2018-05-13T03:54:58.221Z,2.57
2018-05-13T03:57:25.733Z,5.27
2018-05-13T03:59:53.255Z,3.50
2018-05-13T04:02:20.744Z,4.17
2018-05-13T04:04:48.255Z,3.77
2018-05-13T04:07:15.775Z,2.27
2018-05-13T04:09:55.287Z,5.77
2018-05-13T04:12:35.249Z,5.20
2018-05-13T04:15:15.392Z,3.83
2018-05-13T04:17:43.666Z,4.00
2018-05-13T04:20:11.951Z,5.50
2018-05-13T04:22:40.220Z,4.77
2018-05-13T04:25:07.708Z,5.27
2018-05-13T04:27:35.216Z,3.67
2018-05-13T04:30:02.726Z,3.70
2018-05-13T04:32:30.979Z,4.47
2018-05-13T04:34:59.233Z,5.50
2018-05-13T04:37:26.736Z,4.50
2018-05-13T04:39:55.020Z,4.30
2018-05-13T04:42:23.309Z,6.70
2018-05-13T04:44:51.582Z,5.70
2018-05-13T04:47:19.094Z,5.33
2018-05-13T04:49:46.596Z,7.13
2018-05-13T04:52:14.094Z,4.97
2018-05-13T04:54:41.618Z,8.87
2018-05-13T04:57:09.116Z,18.40
2018-05-13T04:59:37.401Z,24.47
2018-05-13T05:02:04.900Z,15.90
2018-05-13T05:04:32.406Z,24.97
2018-05-13T05:07:01.031Z,30.03
2018-05-13T05:09:28.546Z,37.17
2018-05-13T05:11:56.048Z,32.97
2018-05-13T05:14:23.554Z,37.40
2018-05-13T05:16:51.158Z,32.10
2018-05-13T05:19:18.601Z,21.37
2018-05-13T05:21:46.114Z,20.43
2018-05-13T05:24:13.638Z,90.60
2018-05-13T05:26:41.918Z,103.80
2018-05-13T05:29:09.632Z,92.30
2018-05-13T05:31:37.134Z,82.97
2018-05-13T05:34:04.689Z,74.87
2018-05-13T05:36:32.196Z,33.53
2018-05-13T05:39:00.473Z,17.30
2018-05-13T05:41:27.996Z,14.10
2018-05-13T05:43:55.494Z,15.07
2018-05-13T05:46:23.766Z,14.23
2018-05-13T05:48:52.036Z,11.30
2018-05-13T05:51:19.541Z,13.47
2018-05-13T05:53:47.063Z,11.23
2018-05-13T05:56:14.593Z,8.73
2018-05-13T05:58:42.105Z,8.60
2018-05-13T06:01:09.603Z,8.47
2018-05-13T06:03:37.098Z,12.37
2018-05-13T06:06:04.623Z,8.27
2018-05-13T06:08:32.127Z,7.87
2018-05-13T06:10:59.627Z,4.87
2018-05-13T06:13:27.881Z,4.57
2018-05-13T06:15:55.380Z,3.93
2018-05-13T06:18:22.896Z,4.23
2018-05-13T06:20:51.001Z,3.97
2018-05-13T06:23:19.291Z,6.00
2018-05-13T06:25:47.576Z,5.23
2018-05-13T06:28:15.114Z,4.60
2018-05-13T06:30:42.624Z,6.93
2018-05-13T06:33:10.128Z,4.50
2018-05-13T06:35:37.628Z,4.10
2018-05-13T06:38:05.897Z,3.77
2018-05-13T06:40:34.183Z,3.40
2018-05-13T06:43:02.511Z,3.50
2018-05-13T06:45:30.018Z,2.93
2018-05-13T06:47:57.519Z,5.17
2018-05-13T06:50:25.026Z,2.40
2018-05-13T06:52:52.538Z,2.70
2018-05-13T06:55:20.057Z,2.63
2018-05-13T06:57:47.580Z,2.97
2018-05-13T07:00:15.114Z,3.53
2018-05-13T07:02:43.439Z,3.07
2018-05-13T07:05:10.920Z,6.60
2018-05-13T07:07:38.430Z,4.90
2018-05-13T07:10:05.990Z,6.93
2018-05-13T07:12:33.512Z,3.93
2018-05-13T07:15:01.037Z,2.50
2018-05-13T07:17:29.338Z,4.83
2018-05-13T07:19:56.886Z,4.37
2018-05-13T07:22:24.413Z,4.27
2018-05-13T07:24:51.943Z,2.50
2018-05-13T07:27:19.461Z,3.00
2018-05-13T07:29:46.994Z,3.53
2018-05-13T07:32:14.501Z,3.40
2018-05-13T07:34:42.007Z,3.83
2018-05-13T07:37:09.534Z,3.17
2018-05-13T07:39:37.041Z,2.63
2018-05-13T07:42:04.573Z,2.67
2018-05-13T07:44:32.110Z,5.63
2018-05-13T07:46:59.653Z,2.33
2018-05-13T07:49:27.956Z,3.77
2018-05-13T07:51:55.486Z,2.93
2018-05-13T07:54:22.990Z,3.43
2018-05-13T07:56:50.506Z,3.63
2018-05-13T07:59:18.056Z,3.00
2018-05-13T08:01:46.208Z,3.30
2018-05-13T08:04:13.728Z,2.50
2018-05-13T08:06:41.282Z,3.60
2018-05-13T08:09:08.790Z,3.20
2018-05-13T08:11:36.294Z,3.50
2018-05-13T08:14:03.899Z,3.23
2018-05-13T08:16:31.322Z,4.40
2018-05-13T08:18:58.840Z,2.40
2018-05-13T08:21:26.361Z,3.00
2018-05-13T08:23:54.654Z,1.97
2018-05-13T08:26:22.933Z,2.70
2018-05-13T08:28:51.204Z,3.50
2018-05-13T08:31:18.704Z,2.43
2018-05-13T08:33:46.255Z,3.43
2018-05-13T08:36:13.774Z,3.77
2018-05-13T08:38:41.687Z,3.00
2018-05-13T08:41:09.961Z,4.07
2018-05-13T08:43:38.241Z,3.67
2018-05-13T08:46:06.538Z,5.43
2018-05-13T08:48:34.828Z,3.23
2018-05-13T08:51:03.074Z,4.30
2018-05-13T08:53:30.587Z,6.10
2018-05-13T08:55:58.879Z,8.70
2018-05-13T08:58:26.381Z,2.70
2018-05-13T09:00:53.885Z,2.77
2018-05-13T09:03:21.401Z,2.57
2018-05-13T09:05:49.068Z,5.00
2018-05-13T09:08:16.701Z,4.67
2018-05-13T09:10:44.221Z,3.50
2018-05-13T09:13:12.537Z,3.83
2018-05-13T09:15:40.076Z,2.17
2018-05-13T09:18:07.637Z,3.00
2018-05-13T09:20:35.147Z,2.63
2018-05-13T09:23:02.676Z,3.20
2018-05-13T09:25:30.175Z,2.20
2018-05-13T09:27:57.685Z,2.37
2018-05-13T09:30:25.967Z,2.80
2018-05-13T09:32:54.251Z,6.73
2018-05-13T09:35:21.792Z,3.53
2018-05-13T09:37:49.320Z,3.67
2018-05-13T09:40:16.846Z,2.63
2018-05-13T09:42:44.343Z,2.70
2018-05-13T09:45:11.862Z,5.70
2018-05-13T09:47:40.148Z,4.27
2018-05-13T09:50:08.426Z,3.53
2018-05-13T09:52:36.708Z,3.80
2018-05-13T09:55:04.992Z,5.30
2018-05-13T09:57:33.349Z,5.33
2018-05-13T10:00:01.565Z,5.87
2018-05-13T10:02:29.072Z,3.90
2018-05-13T10:04:56.747Z,3.97
2018-05-13T10:07:24.250Z,7.17
2018-05-13T10:09:52.520Z,3.17
2018-05-13T10:12:20.786Z,5.93
2018-05-13T10:14:48.302Z,4.70
2018-05-13T10:17:15.824Z,4.87
2018-05-13T10:19:44.094Z,3.67
2018-05-13T10:22:11.620Z,3.07
2018-05-13T10:24:39.134Z,3.80
2018-05-13T10:27:07.483Z,4.53
2018-05-13T10:29:34.936Z,3.23
2018-05-13T10:32:02.452Z,3.80
2018-05-13T10:34:30.737Z,5.37
2018-05-13T10:36:59.002Z,3.13
2018-05-13T10:39:27.582Z,4.00
2018-05-13T10:41:55.082Z,4.70
2018-05-13T10:44:23.362Z,5.50
2018-05-13T10:46:50.891Z,3.97
2018-05-13T10:49:18.400Z,3.23
2018-05-13T10:51:46.683Z,4.13
2018-05-13T10:54:14.218Z,4.10
2018-05-13T10:56:42.481Z,3.67
2018-05-13T10:59:09.997Z,4.40
2018-05-13T11:01:37.500Z,4.83
2018-05-13T11:04:05.006Z,4.13
2018-05-13T11:06:32.531Z,4.03
2018-05-13T11:09:00.074Z,3.00
2018-05-13T11:11:27.639Z,6.87
2018-05-13T11:13:55.172Z,6.20
2018-05-13T11:16:23.441Z,2.77
2018-05-13T11:18:50.965Z,3.10
2018-05-13T11:21:18.493Z,3.83
2018-05-13T11:23:45.997Z,2.70
2018-05-13T11:26:13.516Z,3.00
2018-05-13T11:28:41.012Z,4.23
2018-05-13T11:31:08.506Z,2.93
2018-05-13T11:33:36.775Z,3.43
2018-05-13T11:36:05.242Z,4.23
2018-05-13T11:38:32.757Z,3.10
2018-05-13T11:41:01.032Z,4.03
2018-05-13T11:43:28.532Z,4.97
2018-05-13T11:45:56.034Z,5.00
2018-05-13T11:48:24.316Z,4.97
2018-05-13T11:50:52.587Z,4.73
2018-05-13T11:53:20.116Z,4.27
2018-05-13T11:55:47.630Z,6.70
2018-05-13T11:58:15.956Z,3.40
2018-05-13T12:00:44.340Z,4.30
2018-05-13T12:03:11.846Z,5.63
2018-05-13T12:05:39.364Z,3.57
2018-05-13T12:08:06.859Z,4.90
2018-05-13T12:10:34.360Z,3.50
2018-05-13T12:13:01.856Z,3.40
2018-05-13T12:15:29.346Z,4.60
2018-05-13T12:17:56.887Z,3.50
2018-05-13T12:20:24.396Z,4.37
2018-05-13T12:22:52.658Z,5.93
2018-05-13T12:25:20.175Z,6.40
2018-05-13T12:27:47.687Z,4.37
2018-05-13T12:30:15.185Z,5.87
2018-05-13T12:32:42.705Z,5.83
2018-05-13T12:35:10.221Z,4.70
2018-05-13T12:37:37.719Z,7.07
2018-05-13T12:40:05.249Z,5.67
2018-05-13T12:42:32.755Z,5.77
2018-05-13T12:45:00.251Z,5.93
2018-05-13T12:47:28.519Z,5.03
2018-05-13T12:49:56.815Z,5.43
2018-05-13T12:52:25.095Z,4.63
2018-05-13T12:54:53.381Z,6.40
2018-05-13T12:57:20.879Z,3.93
2018-05-13T12:59:48.389Z,4.50
2018-05-13T13:02:15.899Z,5.50
2018-05-13T13:04:43.421Z,4.50
2018-05-13T13:07:11.713Z,4.37
2018-05-13T13:09:39.985Z,7.60
2018-05-13T13:12:08.274Z,4.10
2018-05-13T13:14:36.537Z,5.13
2018-05-13T13:17:04.037Z,6.57
2018-05-13T13:19:32.322Z,5.13
2018-05-13T13:21:59.836Z,3.77
2018-05-13T13:24:27.335Z,3.97
2018-05-13T13:26:55.614Z,4.43
2018-05-13T13:29:23.864Z,5.37
2018-05-13T13:31:51.360Z,5.97
2018-05-13T13:34:18.910Z,4.93
2018-05-13T13:36:47.201Z,5.00
2018-05-13T13:39:15.523Z,6.60
2018-05-13T13:41:43.029Z,4.97
2018-05-13T13:44:11.309Z,4.63
2018-05-13T13:46:38.861Z,3.90
2018-05-13T13:49:06.361Z,7.00
2018-05-13T13:51:33.864Z,5.47
2018-05-13T13:54:01.369Z,4.27
2018-05-13T13:56:28.892Z,6.83
2018-05-13T13:58:56.413Z,5.13
2018-05-13T14:01:24.689Z,4.40
2018-05-13T14:03:52.949Z,3.83
2018-05-13T14:06:20.509Z,4.20
2018-05-13T14:08:47.951Z,9.20
2018-05-13T14:11:15.466Z,9.27
2018-05-13T14:13:43.731Z,8.43
2018-05-13T14:16:12.003Z,5.43
2018-05-13T14:18:39.513Z,4.80
2018-05-13T14:21:07.044Z,5.60
2018-05-13T14:23:35.345Z,6.10
2018-05-13T14:26:02.881Z,5.63
2018-05-13T14:28:30.399Z,5.40
2018-05-13T14:30:57.908Z,5.10
2018-05-13T14:33:26.201Z,6.07
2018-05-13T14:35:54.486Z,6.60
2018-05-13T14:38:22.015Z,4.83
2018-05-13T14:40:49.535Z,4.93
2018-05-13T14:43:17.045Z,4.50
2018-05-13T14:45:44.560Z,6.27
2018-05-13T14:48:12.076Z,5.30
2018-05-13T14:50:39.560Z,4.07
2018-05-13T14:53:07.863Z,5.40
2018-05-13T14:55:35.423Z,9.50
2018-05-13T14:58:03.044Z,4.47
2018-05-13T15:00:31.241Z,5.10
2018-05-13T15:02:58.753Z,4.43
2018-05-13T15:05:26.300Z,6.77
2018-05-13T15:07:53.813Z,6.43
2018-05-13T15:10:21.431Z,6.17
2018-05-13T15:12:48.940Z,5.93
2018-05-13T15:15:16.483Z,6.27
2018-05-13T15:17:43.987Z,6.10
2018-05-13T15:20:12.276Z,6.47
2018-05-13T15:22:40.568Z,4.77
2018-05-13T15:25:08.844Z,7.77
2018-05-13T15:27:37.098Z,7.97
2018-05-13T15:30:04.645Z,7.77
2018-05-13T15:32:32.146Z,7.00
2018-05-13T15:35:00.444Z,5.67
2018-05-13T15:37:27.951Z,5.60
2018-05-13T15:39:55.460Z,5.90
2018-05-13T15:42:23.015Z,6.20
2018-05-13T15:44:51.270Z,8.17
2018-05-13T15:47:18.784Z,6.50
2018-05-13T15:49:46.282Z,6.57
2018-05-13T15:52:13.778Z,4.83
2018-05-13T15:54:42.068Z,6.67
2018-05-13T15:57:10.346Z,5.57
2018-05-13T15:59:38.631Z,5.77
2018-05-13T16:02:06.921Z,4.63
2018-05-13T16:04:35.195Z,6.50
2018-05-13T16:07:03.473Z,5.57
2018-05-13T16:09:31.730Z,6.77
2018-05-13T16:11:59.244Z,5.73
2018-05-13T16:14:26.759Z,6.50
2018-05-13T16:16:54.275Z,5.80
2018-05-13T16:19:21.776Z,6.03
2018-05-13T16:21:49.292Z,5.03
2018-05-13T16:24:16.801Z,7.30
2018-05-13T16:26:44.305Z,6.57
2018-05-13T16:29:12.559Z,6.60
2018-05-13T16:31:40.079Z,6.87
2018-05-13T16:34:07.588Z,9.03
2018-05-13T16:36:35.111Z,6.13
2018-05-13T16:39:02.902Z,5.97
2018-05-13T16:41:30.392Z,6.80
2018-05-13T16:43:57.903Z,5.57
2018-05-13T16:46:25.523Z,5.13
2018-05-13T16:48:52.918Z,6.23
2018-05-13T16:51:20.436Z,6.03
2018-05-13T16:53:47.939Z,6.07
2018-05-13T16:56:15.445Z,5.67
2018-05-13T16:58:42.953Z,6.67
2018-05-13T17:01:11.239Z,7.83
2018-05-13T17:03:38.743Z,9.33
2018-05-13T17:06:06.240Z,8.07
2018-05-13T17:08:34.539Z,10.13
2018-05-13T17:11:02.824Z,8.33
2018-05-13T17:13:30.330Z,9.50
2018-05-13T17:15:57.833Z,7.67
2018-05-13T17:18:26.106Z,7.20
2018-05-13T17:20:53.609Z,4.90
2018-05-13T17:23:21.148Z,11.77
2018-05-13T17:25:49.463Z,6.43
2018-05-13T17:28:16.964Z,11.03
2018-05-13T17:30:44.468Z,5.87
2018-05-13T17:33:11.967Z,8.40
2018-05-13T17:35:39.473Z,11.57
2018-05-13T17:38:06.976Z,8.03
2018-05-13T17:40:34.489Z,11.53
2018-05-13T17:43:01.997Z,7.87
2018-05-13T17:45:29.520Z,7.73
2018-05-13T17:47:57.058Z,10.20
2018-05-13T17:50:24.574Z,8.50
2018-05-13T17:52:52.087Z,6.53
2018-05-13T17:55:19.625Z,8.23
2018-05-13T17:57:47.133Z,7.47
2018-05-13T18:00:14.644Z,6.90
2018-05-13T18:02:42.155Z,14.67
2018-05-13T18:05:09.703Z,5.77
2018-05-13T18:07:37.202Z,8.07
2018-05-13T18:10:05.489Z,6.97
2018-05-13T18:12:33.975Z,6.60
2018-05-13T18:15:02.261Z,6.90
2018-05-13T18:17:30.524Z,7.30
2018-05-13T18:19:58.027Z,6.37
2018-05-13T18:22:25.593Z,9.23
2018-05-13T18:24:53.143Z,6.70
2018-05-13T18:27:20.639Z,7.20
2018-05-13T18:29:48.170Z,10.13
2018-05-13T18:32:15.685Z,10.60
2018-05-13T18:34:43.204Z,10.47
2018-05-13T18:37:10.708Z,10.37
2018-05-13T18:39:38.247Z,6.87
2018-05-13T18:42:05.788Z,7.13
2018-05-13T18:44:33.369Z,8.90
2018-05-13T18:47:00.840Z,9.70
2018-05-13T18:49:28.337Z,8.17
2018-05-13T18:51:56.002Z,9.50
2018-05-13T18:54:23.525Z,8.57
2018-05-13T18:56:51.038Z,6.87
2018-05-13T18:59:18.582Z,8.30
2018-05-13T19:01:46.056Z,8.20
2018-05-13T19:04:13.619Z,7.13
2018-05-13T19:06:41.134Z,7.87
2018-05-13T19:09:08.646Z,11.60
2018-05-13T19:11:36.148Z,8.80
2018-05-13T19:14:04.445Z,6.73
2018-05-13T19:16:31.954Z,10.87
2018-05-13T19:18:59.474Z,6.73
2018-05-13T19:21:27.032Z,7.23
2018-05-13T19:23:54.531Z,11.03
2018-05-13T19:26:22.024Z,8.77
2018-05-13T19:28:50.413Z,8.23
2018-05-13T19:31:17.925Z,14.37
2018-05-13T19:33:45.429Z,5.97
2018-05-13T19:36:12.929Z,7.67
2018-05-13T19:38:40.453Z,6.97
2018-05-13T19:41:07.983Z,8.17
2018-05-13T19:43:35.507Z,7.13
2018-05-13T19:46:03.787Z,6.73
2018-05-13T19:48:32.062Z,8.60
2018-05-13T19:51:00.336Z,8.17
2018-05-13T19:53:28.621Z,6.23
2018-05-13T19:55:56.903Z,8.17
2018-05-13T19:58:25.187Z,5.50
2018-05-13T20:00:53.461Z,6.80
2018-05-13T20:03:21.189Z,5.90
2018-05-13T20:05:48.477Z,7.07
2018-05-13T20:08:15.992Z,6.17
2018-05-13T20:10:43.489Z,7.00
2018-05-13T20:13:11.340Z,6.43
2018-05-13T20:15:38.886Z,3.90
2018-05-13T20:18:07.166Z,6.43
2018-05-13T20:20:34.683Z,6.30
2018-05-13T20:23:14.001Z,6.53
2018-05-13T20:25:42.218Z,6.33
2018-05-13T20:28:10.489Z,5.27
2018-05-13T20:30:38.760Z,6.70
2018-05-13T20:33:06.274Z,5.10
2018-05-13T20:35:33.783Z,4.10
2018-05-13T20:38:01.287Z,3.90
2018-05-13T20:40:28.798Z,3.97
2018-05-13T20:42:56.312Z,3.63
2018-05-13T20:45:23.824Z,5.13
2018-05-13T20:47:51.332Z,3.83
2018-05-13T20:50:18.833Z,4.50
2018-05-13T20:52:46.338Z,3.00
2018-05-13T20:55:14.615Z,4.43
2018-05-13T20:57:42.205Z,4.03
2018-05-13T21:00:10.465Z,6.00
2018-05-13T21:02:37.981Z,3.50
2018-05-13T21:05:05.512Z,5.93
2018-05-13T21:07:33.817Z,4.80
2018-05-13T21:10:01.317Z,5.63
2018-05-13T21:12:28.815Z,6.10
2018-05-13T21:14:56.314Z,4.90
2018-05-13T21:17:24.691Z,8.00
2018-05-13T21:19:52.212Z,3.10
2018-05-13T21:22:20.500Z,5.77
2018-05-13T21:24:48.782Z,4.10
2018-05-13T21:27:17.062Z,5.77
2018-05-13T21:29:44.575Z,2.87
2018-05-13T21:32:12.083Z,2.60
2018-05-13T21:34:40.351Z,3.03
2018-05-13T21:37:07.848Z,3.10
2018-05-13T21:39:35.373Z,2.67
2018-05-13T21:42:02.903Z,3.67
2018-05-13T21:44:30.432Z,3.10
2018-05-13T21:46:57.937Z,3.00
2018-05-13T21:49:25.441Z,3.93
2018-05-13T21:51:53.713Z,6.03
2018-05-13T21:54:21.238Z,3.33
2018-05-13T21:56:48.733Z,3.20
2018-05-13T21:59:16.231Z,5.27
2018-05-13T22:01:44.509Z,2.80
2018-05-13T22:04:12.789Z,4.57
2018-05-13T22:06:43.008Z,5.03
2018-05-13T22:09:11.328Z,2.00
2018-05-13T22:11:38.847Z,2.70
2018-05-13T22:14:07.133Z,4.13
2018-05-13T22:16:34.649Z,3.70
2018-05-13T22:19:02.267Z,3.27
2018-05-13T22:21:30.556Z,2.77
2018-05-13T22:23:58.822Z,5.87
2018-05-13T22:26:27.106Z,7.77
2018-05-13T22:28:55.376Z,45.80
2018-05-13T22:31:23.672Z,35.57
2018-05-13T22:33:51.963Z,23.90
2018-05-13T22:36:19.475Z,8.50
2018-05-13T22:38:46.980Z,7.73
2018-05-13T22:41:15.252Z,9.97
2018-05-13T22:43:43.634Z,4.33
2018-05-13T22:46:11.156Z,4.67
2018-05-13T22:48:38.660Z,5.37
2018-05-13T22:51:06.936Z,2.50
2018-05-13T22:53:34.435Z,4.10
2018-05-13T22:56:01.965Z,3.90
2018-05-13T22:58:29.475Z,2.00
2018-05-13T23:00:57.000Z,2.63
2018-05-13T23:03:25.276Z,2.17
2018-05-13T23:05:53.567Z,2.10
2018-05-13T23:08:21.862Z,2.40
2018-05-13T23:10:49.358Z,3.50
2018-05-13T23:13:16.857Z,1.70
2018-05-13T23:15:44.357Z,2.13
2018-05-13T23:18:11.849Z,2.90
2018-05-13T23:20:39.364Z,2.20
2018-05-13T23:23:07.626Z,2.20
2018-05-13T23:25:35.131Z,2.00
2018-05-13T23:28:02.661Z,2.80
2018-05-13T23:30:30.985Z,2.30
2018-05-13T23:32:58.483Z,3.47
2018-05-13T23:35:25.989Z,2.10
2018-05-13T23:37:53.494Z,2.97
2018-05-13T23:40:20.988Z,1.77
2018-05-13T23:42:48.513Z,2.00
2018-05-13T23:45:16.427Z,1.90
2018-05-13T23:47:43.947Z,3.17
2018-05-13T23:50:11.692Z,2.00
2018-05-13T23:52:39.195Z,2.07
2018-05-13T23:55:06.704Z,1.63
2018-05-13T23:57:34.443Z,2.07
